sensor_id;sensor_type;location;lat;lon;timestamp;temperature;humidity
74488;DHT22;63019;51.080;13.642;2023-11-19T00:00:03;4.40;99.90
74488;DHT22;63019;51.080;13.642;2023-11-19T00:01:06;4.40;99.90
74488;DHT22;63019;51.080;13.642;2023-11-19T00:02:08;4.40;99.90
74488;DHT22;63019;51.080;13.642;2023-11-19T00:03:10;4.40;99.90
74488;DHT22;63019;51.080;13.642;2023-11-19T00:04:12;4.40;99.90
74488;DHT22;63019;51.080;13.642;2023-11-19T00:05:15;4.40;99.90
74488;DHT22;63019;51.080;13.642;2023-11-19T00:06:17;4.40;99.90
74488;DHT22;63019;51.080;13.642;2023-11-19T00:07:19;4.50;99.90
74488;DHT22;63019;51.080;13.642;2023-11-19T00:08:22;4.40;99.90
74488;DHT22;63019;51.080;13.642;2023-11-19T00:09:26;4.50;99.90
74488;DHT22;63019;51.080;13.642;2023-11-19T00:10:28;4.40;99.90
74488;DHT22;63019;51.080;13.642;2023-11-19T00:11:30;4.50;99.90
74488;DHT22;63019;51.080;13.642;2023-11-19T00:12:32;4.40;99.90
74488;DHT22;63019;51.080;13.642;2023-11-19T00:13:33;4.40;99.90
74488;DHT22;63019;51.080;13.642;2023-11-19T00:14:35;4.50;99.90
74488;DHT22;63019;51.080;13.642;2023-11-19T00:15:37;4.40;99.90
74488;DHT22;63019;51.080;13.642;2023-11-19T00:16:39;4.40;99.90
74488;DHT22;63019;51.080;13.642;2023-11-19T00:17:42;4.40;99.90
74488;DHT22;63019;51.080;13.642;2023-11-19T00:18:49;4.40;99.90
74488;DHT22;63019;51.080;13.642;2023-11-19T00:19:51;4.40;99.90
74488;DHT22;63019;51.080;13.642;2023-11-19T00:20:53;4.40;99.90
74488;DHT22;63019;51.080;13.642;2023-11-19T00:21:55;4.40;99.90
74488;DHT22;63019;51.080;13.642;2023-11-19T00:22:57;4.40;99.90
74488;DHT22;63019;51.080;13.642;2023-11-19T00:23:59;4.40;99.90
74488;DHT22;63019;51.080;13.642;2023-11-19T00:25:01;4.50;99.90
74488;DHT22;63019;51.080;13.642;2023-11-19T00:26:04;4.50;99.90
74488;DHT22;63019;51.080;13.642;2023-11-19T00:27:07;4.50;99.90
74488;DHT22;63019;51.080;13.642;2023-11-19T00:28:09;4.40;99.90
74488;DHT22;63019;51.080;13.642;2023-11-19T00:29:11;4.40;99.90
74488;DHT22;63019;51.080;13.642;2023-11-19T00:30:15;4.40;99.90
74488;DHT22;63019;51.080;13.642;2023-11-19T00:31:17;4.40;99.90
74488;DHT22;63019;51.080;13.642;2023-11-19T00:32:19;4.40;99.90
74488;DHT22;63019;51.080;13.642;2023-11-19T00:33:21;4.40;99.90
74488;DHT22;63019;51.080;13.642;2023-11-19T00:34:23;4.40;99.90
74488;DHT22;63019;51.080;13.642;2023-11-19T00:35:25;4.40;99.90
74488;DHT22;63019;51.080;13.642;2023-11-19T00:36:27;4.40;99.90
74488;DHT22;63019;51.080;13.642;2023-11-19T00:37:29;4.40;99.90
74488;DHT22;63019;51.080;13.642;2023-11-19T00:38:31;4.50;99.90
74488;DHT22;63019;51.080;13.642;2023-11-19T00:39:33;4.40;99.90
74488;DHT22;63019;51.080;13.642;2023-11-19T00:40:35;4.40;99.90
74488;DHT22;63019;51.080;13.642;2023-11-19T00:41:37;4.40;99.90
74488;DHT22;63019;51.080;13.642;2023-11-19T00:42:39;4.40;99.90
74488;DHT22;63019;51.080;13.642;2023-11-19T00:43:41;4.50;99.90
74488;DHT22;63019;51.080;13.642;2023-11-19T00:44:43;4.40;99.90
74488;DHT22;63019;51.080;13.642;2023-11-19T00:45:52;4.50;99.90
74488;DHT22;63019;51.080;13.642;2023-11-19T00:46:54;4.50;99.90
74488;DHT22;63019;51.080;13.642;2023-11-19T00:47:55;4.50;99.90
74488;DHT22;63019;51.080;13.642;2023-11-19T00:48:58;4.50;99.90
74488;DHT22;63019;51.080;13.642;2023-11-19T00:50:04;4.50;99.90
74488;DHT22;63019;51.080;13.642;2023-11-19T00:51:06;4.50;99.90
74488;DHT22;63019;51.080;13.642;2023-11-19T00:52:08;4.50;99.90
74488;DHT22;63019;51.080;13.642;2023-11-19T00:53:10;4.50;99.90
74488;DHT22;63019;51.080;13.642;2023-11-19T00:54:12;4.50;99.90
74488;DHT22;63019;51.080;13.642;2023-11-19T00:55:14;4.50;99.90
74488;DHT22;63019;51.080;13.642;2023-11-19T00:56:16;4.50;99.90
74488;DHT22;63019;51.080;13.642;2023-11-19T00:57:19;4.50;99.90
74488;DHT22;63019;51.080;13.642;2023-11-19T00:58:20;4.50;99.90
74488;DHT22;63019;51.080;13.642;2023-11-19T00:59:22;4.50;99.90
74488;DHT22;63019;51.080;13.642;2023-11-19T01:00:24;4.40;99.90
74488;DHT22;63019;51.080;13.642;2023-11-19T01:01:28;4.40;99.90
74488;DHT22;63019;51.080;13.642;2023-11-19T01:02:30;4.40;99.90
74488;DHT22;63019;51.080;13.642;2023-11-19T01:03:32;4.40;99.90
74488;DHT22;63019;51.080;13.642;2023-11-19T01:04:35;4.40;99.90
74488;DHT22;63019;51.080;13.642;2023-11-19T01:05:37;4.30;99.90
74488;DHT22;63019;51.080;13.642;2023-11-19T01:06:39;4.30;99.90
74488;DHT22;63019;51.080;13.642;2023-11-19T01:07:50;4.30;99.90
74488;DHT22;63019;51.080;13.642;2023-11-19T01:08:54;4.30;99.90
74488;DHT22;63019;51.080;13.642;2023-11-19T01:09:56;4.40;99.90
74488;DHT22;63019;51.080;13.642;2023-11-19T01:10:58;4.40;99.90
74488;DHT22;63019;51.080;13.642;2023-11-19T01:12:02;4.40;99.90
74488;DHT22;63019;51.080;13.642;2023-11-19T01:13:04;4.30;99.90
74488;DHT22;63019;51.080;13.642;2023-11-19T01:14:07;4.30;99.90
74488;DHT22;63019;51.080;13.642;2023-11-19T01:15:09;4.30;99.90
74488;DHT22;63019;51.080;13.642;2023-11-19T01:16:11;4.20;99.90
74488;DHT22;63019;51.080;13.642;2023-11-19T01:17:14;4.30;99.90
74488;DHT22;63019;51.080;13.642;2023-11-19T01:18:18;4.30;99.90
74488;DHT22;63019;51.080;13.642;2023-11-19T01:19:20;4.30;99.90
74488;DHT22;63019;51.080;13.642;2023-11-19T01:20:23;4.20;99.90
74488;DHT22;63019;51.080;13.642;2023-11-19T01:21:25;4.30;99.90
74488;DHT22;63019;51.080;13.642;2023-11-19T01:22:27;4.30;99.90
74488;DHT22;63019;51.080;13.642;2023-11-19T01:23:29;4.20;99.90
74488;DHT22;63019;51.080;13.642;2023-11-19T01:24:31;4.20;99.90
74488;DHT22;63019;51.080;13.642;2023-11-19T01:25:33;4.30;99.90
74488;DHT22;63019;51.080;13.642;2023-11-19T01:26:35;4.30;99.90
74488;DHT22;63019;51.080;13.642;2023-11-19T01:27:37;4.30;99.90
74488;DHT22;63019;51.080;13.642;2023-11-19T01:28:40;4.30;99.90
74488;DHT22;63019;51.080;13.642;2023-11-19T01:29:49;4.30;99.90
74488;DHT22;63019;51.080;13.642;2023-11-19T01:30:51;4.30;99.90
74488;DHT22;63019;51.080;13.642;2023-11-19T01:31:53;4.30;99.90
74488;DHT22;63019;51.080;13.642;2023-11-19T01:32:54;4.30;99.90
74488;DHT22;63019;51.080;13.642;2023-11-19T01:33:57;4.30;99.90
74488;DHT22;63019;51.080;13.642;2023-11-19T01:34:59;4.30;99.90
74488;DHT22;63019;51.080;13.642;2023-11-19T01:36:01;4.30;99.90
74488;DHT22;63019;51.080;13.642;2023-11-19T01:37:03;4.30;99.90
74488;DHT22;63019;51.080;13.642;2023-11-19T01:38:05;4.30;99.90
74488;DHT22;63019;51.080;13.642;2023-11-19T01:39:07;4.30;99.90
74488;DHT22;63019;51.080;13.642;2023-11-19T01:40:09;4.30;99.90
74488;DHT22;63019;51.080;13.642;2023-11-19T01:41:13;4.40;99.90
74488;DHT22;63019;51.080;13.642;2023-11-19T01:42:15;4.40;99.90
74488;DHT22;63019;51.080;13.642;2023-11-19T01:43:37;4.40;99.90
74488;DHT22;63019;51.080;13.642;2023-11-19T01:44:39;4.40;99.90
74488;DHT22;63019;51.080;13.642;2023-11-19T01:45:41;4.40;99.90
74488;DHT22;63019;51.080;13.642;2023-11-19T01:46:45;4.40;99.90
74488;DHT22;63019;51.080;13.642;2023-11-19T01:47:50;4.40;99.90
74488;DHT22;63019;51.080;13.642;2023-11-19T01:48:53;4.40;99.90
74488;DHT22;63019;51.080;13.642;2023-11-19T01:49:56;4.40;99.90
74488;DHT22;63019;51.080;13.642;2023-11-19T01:50:58;4.40;99.90
74488;DHT22;63019;51.080;13.642;2023-11-19T01:52:05;4.40;99.90
74488;DHT22;63019;51.080;13.642;2023-11-19T01:53:07;4.40;99.90
74488;DHT22;63019;51.080;13.642;2023-11-19T01:54:09;4.40;99.90
74488;DHT22;63019;51.080;13.642;2023-11-19T01:55:12;4.40;99.90
74488;DHT22;63019;51.080;13.642;2023-11-19T01:56:15;4.40;99.90
74488;DHT22;63019;51.080;13.642;2023-11-19T01:57:17;4.40;99.90
74488;DHT22;63019;51.080;13.642;2023-11-19T01:58:20;4.40;99.90
74488;DHT22;63019;51.080;13.642;2023-11-19T01:59:22;4.40;99.90
74488;DHT22;63019;51.080;13.642;2023-11-19T02:00:28;4.40;99.90
74488;DHT22;63019;51.080;13.642;2023-11-19T02:01:30;4.40;99.90
74488;DHT22;63019;51.080;13.642;2023-11-19T02:02:34;4.40;99.90
74488;DHT22;63019;51.080;13.642;2023-11-19T02:03:37;4.50;99.90
74488;DHT22;63019;51.080;13.642;2023-11-19T02:04:39;4.50;99.90
74488;DHT22;63019;51.080;13.642;2023-11-19T02:05:42;4.40;99.90
74488;DHT22;63019;51.080;13.642;2023-11-19T02:06:45;4.40;99.90
74488;DHT22;63019;51.080;13.642;2023-11-19T02:07:49;4.40;99.90
74488;DHT22;63019;51.080;13.642;2023-11-19T02:08:52;4.40;99.90
74488;DHT22;63019;51.080;13.642;2023-11-19T02:09:53;4.40;99.90
74488;DHT22;63019;51.080;13.642;2023-11-19T02:10:55;4.40;99.90
74488;DHT22;63019;51.080;13.642;2023-11-19T02:12:01;4.50;99.90
74488;DHT22;63019;51.080;13.642;2023-11-19T02:13:03;4.40;99.90
74488;DHT22;63019;51.080;13.642;2023-11-19T02:14:07;4.40;99.90
74488;DHT22;63019;51.080;13.642;2023-11-19T02:15:10;4.50;99.90
74488;DHT22;63019;51.080;13.642;2023-11-19T02:16:12;4.50;99.90
74488;DHT22;63019;51.080;13.642;2023-11-19T02:17:27;4.50;99.90
74488;DHT22;63019;51.080;13.642;2023-11-19T02:18:29;4.50;99.90
74488;DHT22;63019;51.080;13.642;2023-11-19T02:19:31;4.50;99.90
74488;DHT22;63019;51.080;13.642;2023-11-19T02:20:33;4.50;99.90
74488;DHT22;63019;51.080;13.642;2023-11-19T02:21:35;4.50;99.90
74488;DHT22;63019;51.080;13.642;2023-11-19T02:22:37;4.50;99.90
74488;DHT22;63019;51.080;13.642;2023-11-19T02:23:39;4.50;99.90
74488;DHT22;63019;51.080;13.642;2023-11-19T02:24:42;4.50;99.90
74488;DHT22;63019;51.080;13.642;2023-11-19T02:25:51;4.50;99.90
74488;DHT22;63019;51.080;13.642;2023-11-19T02:27:10;4.40;99.90
74488;DHT22;63019;51.080;13.642;2023-11-19T02:28:15;4.40;99.90
74488;DHT22;63019;51.080;13.642;2023-11-19T02:29:18;4.50;99.90
74488;DHT22;63019;51.080;13.642;2023-11-19T02:30:20;4.40;99.90
74488;DHT22;63019;51.080;13.642;2023-11-19T02:31:22;4.50;99.90
74488;DHT22;63019;51.080;13.642;2023-11-19T02:32:27;4.40;99.90
74488;DHT22;63019;51.080;13.642;2023-11-19T02:33:32;4.40;99.90
74488;DHT22;63019;51.080;13.642;2023-11-19T02:34:34;4.50;99.90
74488;DHT22;63019;51.080;13.642;2023-11-19T02:35:36;4.50;99.90
74488;DHT22;63019;51.080;13.642;2023-11-19T02:36:38;4.40;99.90
74488;DHT22;63019;51.080;13.642;2023-11-19T02:37:39;4.40;99.90
74488;DHT22;63019;51.080;13.642;2023-11-19T02:38:41;4.50;99.90
74488;DHT22;63019;51.080;13.642;2023-11-19T02:39:43;4.50;99.90
74488;DHT22;63019;51.080;13.642;2023-11-19T02:40:45;4.50;99.90
74488;DHT22;63019;51.080;13.642;2023-11-19T02:41:47;4.50;99.90
74488;DHT22;63019;51.080;13.642;2023-11-19T02:42:53;4.50;99.90
74488;DHT22;63019;51.080;13.642;2023-11-19T02:43:57;4.40;99.90
74488;DHT22;63019;51.080;13.642;2023-11-19T02:44:59;4.50;99.90
74488;DHT22;63019;51.080;13.642;2023-11-19T02:46:03;4.50;99.90
74488;DHT22;63019;51.080;13.642;2023-11-19T02:47:16;4.50;99.90
74488;DHT22;63019;51.080;13.642;2023-11-19T02:48:18;4.50;99.90
74488;DHT22;63019;51.080;13.642;2023-11-19T02:49:20;4.50;99.90
74488;DHT22;63019;51.080;13.642;2023-11-19T02:50:22;4.50;99.90
74488;DHT22;63019;51.080;13.642;2023-11-19T02:51:27;4.50;99.90
74488;DHT22;63019;51.080;13.642;2023-11-19T02:52:29;4.50;99.90
74488;DHT22;63019;51.080;13.642;2023-11-19T02:53:31;4.50;99.90
74488;DHT22;63019;51.080;13.642;2023-11-19T02:54:33;4.60;99.90
74488;DHT22;63019;51.080;13.642;2023-11-19T02:55:36;4.60;99.90
74488;DHT22;63019;51.080;13.642;2023-11-19T02:56:42;4.60;99.90
74488;DHT22;63019;51.080;13.642;2023-11-19T02:57:45;4.60;99.90
74488;DHT22;63019;51.080;13.642;2023-11-19T02:58:50;4.60;99.90
74488;DHT22;63019;51.080;13.642;2023-11-19T02:59:52;4.60;99.90
74488;DHT22;63019;51.080;13.642;2023-11-19T03:00:55;4.60;99.90
74488;DHT22;63019;51.080;13.642;2023-11-19T03:02:02;4.60;99.90
74488;DHT22;63019;51.080;13.642;2023-11-19T03:03:05;4.70;99.90
74488;DHT22;63019;51.080;13.642;2023-11-19T03:04:20;4.70;99.90
74488;DHT22;63019;51.080;13.642;2023-11-19T03:05:22;4.70;99.90
74488;DHT22;63019;51.080;13.642;2023-11-19T03:06:24;4.70;99.90
74488;DHT22;63019;51.080;13.642;2023-11-19T03:07:26;4.70;99.90
74488;DHT22;63019;51.080;13.642;2023-11-19T03:08:28;4.70;99.90
74488;DHT22;63019;51.080;13.642;2023-11-19T03:09:31;4.80;99.90
74488;DHT22;63019;51.080;13.642;2023-11-19T03:10:33;4.80;99.90
74488;DHT22;63019;51.080;13.642;2023-11-19T03:11:36;4.80;99.90
74488;DHT22;63019;51.080;13.642;2023-11-19T03:12:39;4.80;99.90
74488;DHT22;63019;51.080;13.642;2023-11-19T03:13:40;4.80;99.90
74488;DHT22;63019;51.080;13.642;2023-11-19T03:14:42;4.80;99.90
74488;DHT22;63019;51.080;13.642;2023-11-19T03:15:46;4.80;99.90
74488;DHT22;63019;51.080;13.642;2023-11-19T03:16:48;4.80;99.90
74488;DHT22;63019;51.080;13.642;2023-11-19T03:17:50;4.80;99.90
74488;DHT22;63019;51.080;13.642;2023-11-19T03:18:52;4.80;99.90
74488;DHT22;63019;51.080;13.642;2023-11-19T03:19:54;4.80;99.90
74488;DHT22;63019;51.080;13.642;2023-11-19T03:20:56;4.80;99.90
74488;DHT22;63019;51.080;13.642;2023-11-19T03:22:01;4.80;99.90
74488;DHT22;63019;51.080;13.642;2023-11-19T03:23:03;4.80;99.90
74488;DHT22;63019;51.080;13.642;2023-11-19T03:24:05;4.80;99.90
74488;DHT22;63019;51.080;13.642;2023-11-19T03:25:10;4.80;99.90
74488;DHT22;63019;51.080;13.642;2023-11-19T03:26:12;4.80;99.90
74488;DHT22;63019;51.080;13.642;2023-11-19T03:27:14;4.80;99.90
74488;DHT22;63019;51.080;13.642;2023-11-19T03:28:18;4.80;99.90
74488;DHT22;63019;51.080;13.642;2023-11-19T03:29:20;4.80;99.90
74488;DHT22;63019;51.080;13.642;2023-11-19T03:30:21;4.80;99.90
74488;DHT22;63019;51.080;13.642;2023-11-19T03:31:35;4.90;99.90
74488;DHT22;63019;51.080;13.642;2023-11-19T03:32:37;4.90;99.90
74488;DHT22;63019;51.080;13.642;2023-11-19T03:33:40;4.90;99.90
74488;DHT22;63019;51.080;13.642;2023-11-19T03:34:42;4.90;99.90
74488;DHT22;63019;51.080;13.642;2023-11-19T03:35:44;4.90;99.90
74488;DHT22;63019;51.080;13.642;2023-11-19T03:36:47;4.90;99.90
74488;DHT22;63019;51.080;13.642;2023-11-19T03:37:51;4.90;99.90
74488;DHT22;63019;51.080;13.642;2023-11-19T03:38:52;4.90;99.90
74488;DHT22;63019;51.080;13.642;2023-11-19T03:39:54;4.90;99.90
74488;DHT22;63019;51.080;13.642;2023-11-19T03:41:00;4.90;99.90
74488;DHT22;63019;51.080;13.642;2023-11-19T03:42:03;4.90;99.90
74488;DHT22;63019;51.080;13.642;2023-11-19T03:43:05;5.00;99.90
74488;DHT22;63019;51.080;13.642;2023-11-19T03:44:07;5.00;99.90
74488;DHT22;63019;51.080;13.642;2023-11-19T03:45:09;5.00;99.90
74488;DHT22;63019;51.080;13.642;2023-11-19T03:46:20;5.00;99.90
74488;DHT22;63019;51.080;13.642;2023-11-19T03:47:22;5.00;99.90
74488;DHT22;63019;51.080;13.642;2023-11-19T03:48:24;5.00;99.90
74488;DHT22;63019;51.080;13.642;2023-11-19T03:49:26;5.00;99.90
74488;DHT22;63019;51.080;13.642;2023-11-19T03:50:28;5.00;99.90
74488;DHT22;63019;51.080;13.642;2023-11-19T03:51:30;5.00;99.90
74488;DHT22;63019;51.080;13.642;2023-11-19T03:52:31;5.00;99.90
74488;DHT22;63019;51.080;13.642;2023-11-19T03:53:45;5.00;99.90
74488;DHT22;63019;51.080;13.642;2023-11-19T03:54:47;5.00;99.90
74488;DHT22;63019;51.080;13.642;2023-11-19T03:55:49;5.00;99.90
74488;DHT22;63019;51.080;13.642;2023-11-19T03:56:51;5.00;99.90
74488;DHT22;63019;51.080;13.642;2023-11-19T03:57:53;5.00;99.90
74488;DHT22;63019;51.080;13.642;2023-11-19T03:58:55;5.00;99.90
74488;DHT22;63019;51.080;13.642;2023-11-19T03:59:57;5.00;99.90
74488;DHT22;63019;51.080;13.642;2023-11-19T04:01:00;5.00;99.90
74488;DHT22;63019;51.080;13.642;2023-11-19T04:02:02;5.00;99.90
74488;DHT22;63019;51.080;13.642;2023-11-19T04:03:04;5.00;99.90
74488;DHT22;63019;51.080;13.642;2023-11-19T04:04:06;5.00;99.90
74488;DHT22;63019;51.080;13.642;2023-11-19T04:05:08;5.00;99.90
74488;DHT22;63019;51.080;13.642;2023-11-19T04:06:11;5.00;99.90
74488;DHT22;63019;51.080;13.642;2023-11-19T04:07:13;5.00;99.90
74488;DHT22;63019;51.080;13.642;2023-11-19T04:08:15;5.00;99.90
74488;DHT22;63019;51.080;13.642;2023-11-19T04:09:17;5.00;99.90
74488;DHT22;63019;51.080;13.642;2023-11-19T04:10:18;5.00;99.90
74488;DHT22;63019;51.080;13.642;2023-11-19T04:11:20;5.00;99.90
74488;DHT22;63019;51.080;13.642;2023-11-19T04:12:23;5.00;99.90
74488;DHT22;63019;51.080;13.642;2023-11-19T04:13:25;5.00;99.90
74488;DHT22;63019;51.080;13.642;2023-11-19T04:14:27;5.00;99.90
74488;DHT22;63019;51.080;13.642;2023-11-19T04:15:29;5.00;99.90
74488;DHT22;63019;51.080;13.642;2023-11-19T04:16:30;5.00;99.90
74488;DHT22;63019;51.080;13.642;2023-11-19T04:17:32;5.00;99.90
74488;DHT22;63019;51.080;13.642;2023-11-19T04:18:34;5.00;99.90
74488;DHT22;63019;51.080;13.642;2023-11-19T04:19:36;5.00;99.90
74488;DHT22;63019;51.080;13.642;2023-11-19T04:20:38;5.00;99.90
74488;DHT22;63019;51.080;13.642;2023-11-19T04:21:40;5.00;99.90
74488;DHT22;63019;51.080;13.642;2023-11-19T04:22:43;5.00;99.90
74488;DHT22;63019;51.080;13.642;2023-11-19T04:23:45;5.00;99.90
74488;DHT22;63019;51.080;13.642;2023-11-19T04:24:47;5.00;99.90
74488;DHT22;63019;51.080;13.642;2023-11-19T04:25:48;5.00;99.90
74488;DHT22;63019;51.080;13.642;2023-11-19T04:26:50;5.00;99.90
74488;DHT22;63019;51.080;13.642;2023-11-19T04:27:52;5.00;99.90
74488;DHT22;63019;51.080;13.642;2023-11-19T04:28:54;5.00;99.90
74488;DHT22;63019;51.080;13.642;2023-11-19T04:29:56;5.00;99.90
74488;DHT22;63019;51.080;13.642;2023-11-19T04:30:58;5.00;99.90
74488;DHT22;63019;51.080;13.642;2023-11-19T04:32:00;5.00;99.90
74488;DHT22;63019;51.080;13.642;2023-11-19T04:33:02;5.00;99.90
74488;DHT22;63019;51.080;13.642;2023-11-19T04:34:05;5.00;99.90
74488;DHT22;63019;51.080;13.642;2023-11-19T04:35:08;5.00;99.90
74488;DHT22;63019;51.080;13.642;2023-11-19T04:36:10;5.00;99.90
74488;DHT22;63019;51.080;13.642;2023-11-19T04:37:13;5.00;99.90
74488;DHT22;63019;51.080;13.642;2023-11-19T04:38:15;5.00;99.90
74488;DHT22;63019;51.080;13.642;2023-11-19T04:39:17;5.00;99.90
74488;DHT22;63019;51.080;13.642;2023-11-19T04:40:20;5.00;99.90
74488;DHT22;63019;51.080;13.642;2023-11-19T04:41:24;5.00;99.90
74488;DHT22;63019;51.080;13.642;2023-11-19T04:42:26;5.00;99.90
74488;DHT22;63019;51.080;13.642;2023-11-19T04:43:28;5.00;99.90
74488;DHT22;63019;51.080;13.642;2023-11-19T04:44:30;5.00;99.90
74488;DHT22;63019;51.080;13.642;2023-11-19T04:45:32;4.90;99.90
74488;DHT22;63019;51.080;13.642;2023-11-19T04:46:34;4.90;99.90
74488;DHT22;63019;51.080;13.642;2023-11-19T04:47:36;5.00;99.90
74488;DHT22;63019;51.080;13.642;2023-11-19T04:48:38;5.00;99.90
74488;DHT22;63019;51.080;13.642;2023-11-19T04:49:43;5.00;99.90
74488;DHT22;63019;51.080;13.642;2023-11-19T04:50:45;5.00;99.90
74488;DHT22;63019;51.080;13.642;2023-11-19T04:51:47;5.00;99.90
74488;DHT22;63019;51.080;13.642;2023-11-19T04:52:49;5.00;99.90
74488;DHT22;63019;51.080;13.642;2023-11-19T04:53:51;5.00;99.90
74488;DHT22;63019;51.080;13.642;2023-11-19T04:54:53;5.00;99.90
74488;DHT22;63019;51.080;13.642;2023-11-19T04:55:55;5.00;99.90
74488;DHT22;63019;51.080;13.642;2023-11-19T04:56:57;5.00;99.90
74488;DHT22;63019;51.080;13.642;2023-11-19T04:57:58;5.00;99.90
74488;DHT22;63019;51.080;13.642;2023-11-19T04:59:00;4.90;99.90
74488;DHT22;63019;51.080;13.642;2023-11-19T05:00:04;5.00;99.90
74488;DHT22;63019;51.080;13.642;2023-11-19T05:01:17;5.00;99.90
74488;DHT22;63019;51.080;13.642;2023-11-19T05:02:19;5.00;99.90
74488;DHT22;63019;51.080;13.642;2023-11-19T05:03:21;4.90;99.90
74488;DHT22;63019;51.080;13.642;2023-11-19T05:04:24;5.00;99.90
74488;DHT22;63019;51.080;13.642;2023-11-19T05:05:26;4.90;99.90
74488;DHT22;63019;51.080;13.642;2023-11-19T05:06:29;4.90;99.90
74488;DHT22;63019;51.080;13.642;2023-11-19T05:07:31;4.90;99.90
74488;DHT22;63019;51.080;13.642;2023-11-19T05:08:33;5.00;99.90
74488;DHT22;63019;51.080;13.642;2023-11-19T05:09:35;5.00;99.90
74488;DHT22;63019;51.080;13.642;2023-11-19T05:10:37;5.00;99.90
74488;DHT22;63019;51.080;13.642;2023-11-19T05:11:38;5.00;99.90
74488;DHT22;63019;51.080;13.642;2023-11-19T05:12:52;5.00;99.90
74488;DHT22;63019;51.080;13.642;2023-11-19T05:13:54;5.00;99.90
74488;DHT22;63019;51.080;13.642;2023-11-19T05:14:56;5.00;99.90
74488;DHT22;63019;51.080;13.642;2023-11-19T05:15:59;5.00;99.90
74488;DHT22;63019;51.080;13.642;2023-11-19T05:17:00;5.00;99.90
74488;DHT22;63019;51.080;13.642;2023-11-19T05:18:02;5.00;99.90
74488;DHT22;63019;51.080;13.642;2023-11-19T05:19:06;5.00;99.90
74488;DHT22;63019;51.080;13.642;2023-11-19T05:20:08;4.90;99.90
74488;DHT22;63019;51.080;13.642;2023-11-19T05:21:15;4.90;99.90
74488;DHT22;63019;51.080;13.642;2023-11-19T05:22:19;4.90;99.90
74488;DHT22;63019;51.080;13.642;2023-11-19T05:23:22;4.90;99.90
74488;DHT22;63019;51.080;13.642;2023-11-19T05:24:24;4.90;99.90
74488;DHT22;63019;51.080;13.642;2023-11-19T05:25:26;4.90;99.90
74488;DHT22;63019;51.080;13.642;2023-11-19T05:26:28;4.90;99.90
74488;DHT22;63019;51.080;13.642;2023-11-19T05:27:30;4.90;99.90
74488;DHT22;63019;51.080;13.642;2023-11-19T05:28:32;4.90;99.90
74488;DHT22;63019;51.080;13.642;2023-11-19T05:29:34;4.90;99.90
74488;DHT22;63019;51.080;13.642;2023-11-19T05:30:36;4.90;99.90
74488;DHT22;63019;51.080;13.642;2023-11-19T05:31:37;4.90;99.90
74488;DHT22;63019;51.080;13.642;2023-11-19T05:32:40;4.90;99.90
74488;DHT22;63019;51.080;13.642;2023-11-19T05:33:42;4.90;99.90
74488;DHT22;63019;51.080;13.642;2023-11-19T05:34:44;4.90;99.90
74488;DHT22;63019;51.080;13.642;2023-11-19T05:35:49;4.80;99.90
74488;DHT22;63019;51.080;13.642;2023-11-19T05:36:51;4.80;99.90
74488;DHT22;63019;51.080;13.642;2023-11-19T05:37:52;4.80;99.90
74488;DHT22;63019;51.080;13.642;2023-11-19T05:38:54;4.80;99.90
74488;DHT22;63019;51.080;13.642;2023-11-19T05:39:56;4.80;99.90
74488;DHT22;63019;51.080;13.642;2023-11-19T05:40:58;4.80;99.90
74488;DHT22;63019;51.080;13.642;2023-11-19T05:42:00;4.80;99.90
74488;DHT22;63019;51.080;13.642;2023-11-19T05:43:01;4.90;99.90
74488;DHT22;63019;51.080;13.642;2023-11-19T05:44:03;4.90;99.90
74488;DHT22;63019;51.080;13.642;2023-11-19T05:45:05;4.90;99.90
74488;DHT22;63019;51.080;13.642;2023-11-19T05:46:09;4.90;99.90
74488;DHT22;63019;51.080;13.642;2023-11-19T05:47:14;4.80;99.90
74488;DHT22;63019;51.080;13.642;2023-11-19T05:48:15;4.80;99.90
74488;DHT22;63019;51.080;13.642;2023-11-19T05:49:18;4.80;99.90
74488;DHT22;63019;51.080;13.642;2023-11-19T05:50:20;4.80;99.90
74488;DHT22;63019;51.080;13.642;2023-11-19T05:51:22;4.80;99.90
74488;DHT22;63019;51.080;13.642;2023-11-19T05:52:25;4.80;99.90
74488;DHT22;63019;51.080;13.642;2023-11-19T05:53:27;4.80;99.90
74488;DHT22;63019;51.080;13.642;2023-11-19T05:54:29;4.80;99.90
74488;DHT22;63019;51.080;13.642;2023-11-19T05:55:39;4.80;99.90
74488;DHT22;63019;51.080;13.642;2023-11-19T05:57:01;4.80;99.90
74488;DHT22;63019;51.080;13.642;2023-11-19T05:58:03;4.80;99.90
74488;DHT22;63019;51.080;13.642;2023-11-19T05:59:05;4.80;99.90
74488;DHT22;63019;51.080;13.642;2023-11-19T06:00:17;4.80;99.90
74488;DHT22;63019;51.080;13.642;2023-11-19T06:01:19;4.80;99.90
74488;DHT22;63019;51.080;13.642;2023-11-19T06:02:21;4.80;99.90
74488;DHT22;63019;51.080;13.642;2023-11-19T06:03:23;4.80;99.90
74488;DHT22;63019;51.080;13.642;2023-11-19T06:04:25;4.80;99.90
74488;DHT22;63019;51.080;13.642;2023-11-19T06:05:27;4.80;99.90
74488;DHT22;63019;51.080;13.642;2023-11-19T06:06:29;4.80;99.90
74488;DHT22;63019;51.080;13.642;2023-11-19T06:07:32;4.90;99.90
74488;DHT22;63019;51.080;13.642;2023-11-19T06:08:33;4.90;99.90
74488;DHT22;63019;51.080;13.642;2023-11-19T06:09:35;4.90;99.90
74488;DHT22;63019;51.080;13.642;2023-11-19T06:10:39;4.90;99.90
74488;DHT22;63019;51.080;13.642;2023-11-19T06:11:40;4.90;99.90
74488;DHT22;63019;51.080;13.642;2023-11-19T06:12:42;4.90;99.90
74488;DHT22;63019;51.080;13.642;2023-11-19T06:13:45;4.90;99.90
74488;DHT22;63019;51.080;13.642;2023-11-19T06:14:46;4.90;99.90
74488;DHT22;63019;51.080;13.642;2023-11-19T06:15:48;4.90;99.90
74488;DHT22;63019;51.080;13.642;2023-11-19T06:16:52;4.90;99.90
74488;DHT22;63019;51.080;13.642;2023-11-19T06:17:54;4.90;99.90
74488;DHT22;63019;51.080;13.642;2023-11-19T06:19:02;4.90;99.90
74488;DHT22;63019;51.080;13.642;2023-11-19T06:20:05;4.80;99.90
74488;DHT22;63019;51.080;13.642;2023-11-19T06:21:07;4.80;99.90
74488;DHT22;63019;51.080;13.642;2023-11-19T06:22:10;4.90;99.90
74488;DHT22;63019;51.080;13.642;2023-11-19T06:23:12;4.90;99.90
74488;DHT22;63019;51.080;13.642;2023-11-19T06:24:14;4.80;99.90
74488;DHT22;63019;51.080;13.642;2023-11-19T06:25:16;4.90;99.90
74488;DHT22;63019;51.080;13.642;2023-11-19T06:26:18;4.90;99.90
74488;DHT22;63019;51.080;13.642;2023-11-19T06:27:21;4.90;99.90
74488;DHT22;63019;51.080;13.642;2023-11-19T06:28:23;4.90;99.90
74488;DHT22;63019;51.080;13.642;2023-11-19T06:29:26;4.90;99.90
74488;DHT22;63019;51.080;13.642;2023-11-19T06:30:28;4.90;99.90
74488;DHT22;63019;51.080;13.642;2023-11-19T06:31:31;4.90;99.90
74488;DHT22;63019;51.080;13.642;2023-11-19T06:32:33;4.90;99.90
74488;DHT22;63019;51.080;13.642;2023-11-19T06:33:35;4.90;99.90
74488;DHT22;63019;51.080;13.642;2023-11-19T06:34:37;4.90;99.90
74488;DHT22;63019;51.080;13.642;2023-11-19T06:35:40;4.90;99.90
74488;DHT22;63019;51.080;13.642;2023-11-19T06:36:42;4.90;99.90